Time;durP1;ratioP1;P1;durP2;ratioP2;P2;SDS_P1;SDS_P2;PMS_P1;PMS_P2;Temp;Humidity;BMP_temperature;BMP_pressure;BME280_temperature;BME280_humidity;BME280_pressure;Samples;Min_cycle;Max_cycle;Signal;HPM_P1;HPM_P2
2024/03/30 19:28:49;;;;;;;61.25;22.85;;;;;;;;;;7379300;19;20837;-47
2024/03/30 19:31:15;;;;;;;62.63;24.30;;;;;;;;;;7354693;19;20316;-47
2024/03/30 19:33:40;;;;;;;84.90;33.00;;;;;;;;;;7329223;19;20304;-44
2024/03/30 19:36:06;;;;;;;94.73;38.70;;;;;;;;;;7379542;19;20321;-44
2024/03/30 19:38:31;;;;;;;92.03;38.22;;;;;;;;;;7356305;19;20296;-44
2024/03/30 19:41:07;;;;;;;78.20;34.70;;;;;;;;;;7378447;19;20771;-45
2024/03/30 19:43:33;;;;;;;72.82;32.25;;;;;;;;;;7355001;19;20300;-47
2024/03/30 19:45:58;;;;;;;85.82;35.75;;;;;;;;;;7377827;19;20409;-49
2024/03/30 19:48:23;;;;;;;75.63;35.73;;;;;;;;;;7354381;19;20860;-44
2024/03/30 19:50:57;;;;;;;84.77;34.87;;;;;;;;;;7377685;19;20318;-45
2024/03/30 19:53:22;;;;;;;85.20;39.10;;;;;;;;;;7354737;19;20320;-45
2024/03/30 19:55:48;;;;;;;96.63;41.00;;;;;;;;;;7377202;19;20299;-44
2024/03/30 19:58:13;;;;;;;93.73;42.23;;;;;;;;;;7355420;19;20332;-47
2024/03/30 20:00:40;;;;;;;97.90;41.67;;;;;;;;;;7376704;19;21242;-46
2024/03/30 20:03:05;;;;;;;100.50;42.53;;;;;;;;;;7377191;19;20360;-48
2024/03/30 20:05:31;;;;;;;95.93;40.10;;;;;;;;;;7356165;19;20300;-46
2024/03/30 20:07:56;;;;;;;96.33;40.70;;;;;;;;;;7377965;19;20422;-45
2024/03/30 20:10:22;;;;;;;101.90;41.42;;;;;;;;;;7358809;19;20347;-45
2024/03/30 20:12:47;;;;;;;100.83;42.70;;;;;;;;;;7377152;19;20324;-46
2024/03/30 20:15:12;;;;;;;102.97;44.15;;;;;;;;;;7354989;19;21000;-46
2024/03/30 20:17:40;;;;;;;92.10;41.30;;;;;;;;;;7376844;19;20295;-47
2024/03/30 20:20:08;;;;;;;98.75;37.92;;;;;;;;;;7375904;19;20352;-44
2024/03/30 20:22:34;;;;;;;82.82;36.05;;;;;;;;;;7355351;19;20347;-45
2024/03/30 20:24:59;;;;;;;85.63;34.30;;;;;;;;;;7373052;19;20767;-49
2024/03/30 20:27:24;;;;;;;94.60;38.07;;;;;;;;;;7353382;19;20439;-44
2024/03/30 20:29:50;;;;;;;105.57;41.20;;;;;;;;;;7377288;19;20321;-48
2024/03/30 20:32:16;;;;;;;115.40;44.87;;;;;;;;;;7353779;19;20341;-45
2024/03/30 20:34:44;;;;;;;116.82;45.33;;;;;;;;;;7376890;19;20300;-46
2024/03/30 20:37:09;;;;;;;119.55;46.72;;;;;;;;;;7366797;19;20325;-44
2024/03/30 20:39:37;;;;;;;123.73;46.67;;;;;;;;;;7348668;19;20831;-45
2024/03/30 20:42:03;;;;;;;119.97;47.50;;;;;;;;;;7335519;19;20666;-46
2024/03/30 20:44:29;;;;;;;117.90;49.20;;;;;;;;;;7317935;19;20439;-47
2024/03/30 20:46:54;;;;;;;124.20;47.83;;;;;;;;;;7346976;19;20336;-46
2024/03/30 20:49:20;;;;;;;97.80;42.23;;;;;;;;;;7324215;19;20341;-44
2024/03/30 20:51:45;;;;;;;108.50;39.93;;;;;;;;;;7346896;19;20387;-44
2024/03/30 20:54:10;;;;;;;97.43;39.97;;;;;;;;;;7324521;19;20312;-48
2024/03/30 20:56:36;;;;;;;97.07;39.35;;;;;;;;;;7347565;19;20437;-47
2024/03/30 20:59:02;;;;;;;95.73;38.33;;;;;;;;;;7347790;19;20321;-46
2024/03/30 21:01:27;;;;;;;95.38;37.60;;;;;;;;;;7323708;19;20309;-47
2024/03/30 21:03:53;;;;;;;95.27;35.80;;;;;;;;;;7347671;19;20336;-50
2024/03/30 21:06:18;;;;;;;91.23;36.13;;;;;;;;;;7325364;19;20325;-46
2024/03/30 21:08:44;;;;;;;86.43;34.40;;;;;;;;;;7347483;19;20296;-47
2024/03/30 21:11:13;;;;;;;88.82;34.97;;;;;;;;;;7337955;19;20316;-44
2024/03/30 21:13:39;;;;;;;90.40;34.60;;;;;;;;;;7346898;19;20305;-45
2024/03/30 21:16:04;;;;;;;85.40;34.03;;;;;;;;;;7347751;19;20344;-44
2024/03/30 21:18:30;;;;;;;94.87;34.17;;;;;;;;;;7323705;19;20313;-45
2024/03/30 21:20:59;;;;;;;75.10;32.45;;;;;;;;;;7346275;19;20392;-46
2024/03/30 21:23:25;;;;;;;81.60;31.92;;;;;;;;;;7322273;19;20340;-45
2024/03/30 21:26:00;;;;;;;69.00;29.33;;;;;;;;;;7346947;19;20297;-46
2024/03/30 21:28:26;;;;;;;74.97;29.60;;;;;;;;;;7323613;19;20682;-47
2024/03/30 21:30:51;;;;;;;71.13;29.27;;;;;;;;;;7346191;19;20372;-46
2024/03/30 21:33:16;;;;;;;61.53;26.10;;;;;;;;;;7323095;19;20337;-43
2024/03/30 21:35:42;;;;;;;63.28;26.95;;;;;;;;;;7346738;19;20293;-45
2024/03/30 21:38:07;;;;;;;65.57;26.93;;;;;;;;;;7346881;19;20329;-48
2024/03/30 21:40:33;;;;;;;62.97;26.00;;;;;;;;;;7323775;19;20365;-45
2024/03/30 21:42:59;;;;;;;61.23;27.10;;;;;;;;;;7345463;19;20849;-45
2024/03/30 21:45:25;;;;;;;58.92;25.30;;;;;;;;;;7323549;19;20345;-44
2024/03/30 21:47:50;;;;;;;56.77;25.23;;;;;;;;;;7345068;19;20318;-44
2024/03/30 21:50:16;;;;;;;56.05;27.20;;;;;;;;;;7319977;19;20783;-44
2024/03/30 21:52:41;;;;;;;60.43;26.53;;;;;;;;;;7344983;19;20465;-45
2024/03/30 21:55:07;;;;;;;52.93;24.70;;;;;;;;;;7346224;19;20895;-44
2024/03/30 21:57:33;;;;;;;52.78;24.60;;;;;;;;;;7323973;19;20645;-47
2024/03/30 21:59:58;;;;;;;57.73;25.43;;;;;;;;;;7346353;19;20370;-48
2024/03/30 22:02:23;;;;;;;50.22;25.42;;;;;;;;;;7322341;19;20426;-44
2024/03/30 22:04:50;;;;;;;62.00;27.10;;;;;;;;;;7346207;19;20301;-49
2024/03/30 22:07:16;;;;;;;53.55;26.70;;;;;;;;;;7322203;19;20412;-44
2024/03/30 22:09:41;;;;;;;55.10;26.83;;;;;;;;;;7343884;19;20930;-45
2024/03/30 22:12:07;;;;;;;65.20;30.50;;;;;;;;;;7346073;19;20317;-45
2024/03/30 22:14:32;;;;;;;63.58;29.17;;;;;;;;;;7323484;19;20332;-47
2024/03/30 22:16:58;;;;;;;58.23;26.90;;;;;;;;;;7346284;19;20320;-47
2024/03/30 22:19:25;;;;;;;54.22;26.65;;;;;;;;;;7322609;19;20678;-47
2024/03/30 22:21:50;;;;;;;58.60;27.50;;;;;;;;;;7345396;19;20665;-47
2024/03/30 22:24:16;;;;;;;60.88;27.40;;;;;;;;;;7320862;19;20396;-44
2024/03/30 22:26:42;;;;;;;56.70;26.60;;;;;;;;;;7344258;19;20372;-47
2024/03/30 22:29:10;;;;;;;54.00;27.25;;;;;;;;;;7340951;19;20334;-44
2024/03/30 22:31:35;;;;;;;58.70;28.58;;;;;;;;;;7321171;19;20299;-44
2024/03/30 22:34:01;;;;;;;54.00;27.95;;;;;;;;;;7339112;19;20316;-44
2024/03/30 22:36:26;;;;;;;61.13;29.10;;;;;;;;;;7318109;19;20661;-44
2024/03/30 22:38:54;;;;;;;56.40;27.73;;;;;;;;;;7344492;19;20334;-45
2024/03/30 22:41:20;;;;;;;61.40;29.23;;;;;;;;;;7321613;19;20313;-45
2024/03/30 22:43:45;;;;;;;63.00;29.95;;;;;;;;;;7344941;19;20319;-49
2024/03/30 22:46:11;;;;;;;70.15;30.60;;;;;;;;;;7321882;19;20320;-49
2024/03/30 22:48:37;;;;;;;69.57;31.93;;;;;;;;;;7344475;19;20895;-44
2024/03/30 22:51:03;;;;;;;67.80;30.13;;;;;;;;;;7344253;19;20373;-44
2024/03/30 22:53:28;;;;;;;59.15;29.50;;;;;;;;;;7322118;19;20286;-49
2024/03/30 22:55:54;;;;;;;61.00;27.20;;;;;;;;;;7344533;19;20430;-45
2024/03/30 22:58:21;;;;;;;57.47;26.55;;;;;;;;;;7321986;19;20389;-44
2024/03/30 23:00:47;;;;;;;50.60;24.00;;;;;;;;;;7343047;19;20324;-44
2024/03/30 23:03:15;;;;;;;57.60;25.90;;;;;;;;;;7319883;19;20320;-50
2024/03/30 23:05:49;;;;;;;53.97;25.90;;;;;;;;;;7344017;19;20305;-46
2024/03/30 23:08:16;;;;;;;56.28;27.75;;;;;;;;;;7319932;19;20741;-47
2024/03/30 23:10:41;;;;;;;67.45;30.10;;;;;;;;;;7342641;19;20864;-44
2024/03/30 23:13:06;;;;;;;66.93;33.03;;;;;;;;;;7342468;19;20408;-44
2024/03/30 23:15:32;;;;;;;76.30;37.63;;;;;;;;;;7320785;19;20301;-46
2024/03/30 23:17:58;;;;;;;76.18;36.85;;;;;;;;;;7344231;19;20328;-44
2024/03/30 23:20:23;;;;;;;68.03;35.40;;;;;;;;;;7319175;19;20344;-44
2024/03/30 23:22:48;;;;;;;67.83;35.10;;;;;;;;;;7343004;19;20301;-47
2024/03/30 23:25:14;;;;;;;63.70;34.20;;;;;;;;;;7318331;19;20443;-46
2024/03/30 23:27:39;;;;;;;67.93;33.10;;;;;;;;;;7341966;19;20300;-45
2024/03/30 23:30:05;;;;;;;64.60;32.73;;;;;;;;;;7342734;19;20711;-46
2024/03/30 23:32:30;;;;;;;67.63;33.40;;;;;;;;;;7319847;19;20321;-47
2024/03/30 23:34:56;;;;;;;71.03;35.57;;;;;;;;;;7344119;19;20506;-44
2024/03/30 23:37:21;;;;;;;67.03;37.17;;;;;;;;;;7320217;19;20361;-44
2024/03/30 23:39:46;;;;;;;66.40;35.33;;;;;;;;;;7342770;19;20300;-44
2024/03/30 23:42:12;;;;;;;65.77;35.93;;;;;;;;;;7319803;19;20345;-46
2024/03/30 23:44:37;;;;;;;61.65;33.17;;;;;;;;;;7342356;19;20305;-45
2024/03/30 23:47:03;;;;;;;69.10;35.93;;;;;;;;;;7341239;19;20693;-44
2024/03/30 23:49:31;;;;;;;59.85;34.58;;;;;;;;;;7320043;19;20413;-44
2024/03/30 23:51:56;;;;;;;58.60;33.22;;;;;;;;;;7342572;19;20317;-48
2024/03/30 23:54:22;;;;;;;59.90;33.10;;;;;;;;;;7318421;19;20784;-44
2024/03/30 23:56:47;;;;;;;64.33;33.27;;;;;;;;;;7341893;19;20320;-43
2024/03/30 23:59:12;;;;;;;59.40;32.90;;;;;;;;;;7319702;19;20339;-49
